Time;durP1;ratioP1;P1;durP2;ratioP2;P2;SDS_P1;SDS_P2;PMS_P1;PMS_P2;Temp;Humidity;BMP_temperature;BMP_pressure;BME280_temperature;BME280_humidity;BME280_pressure;Samples;Min_cycle;Max_cycle;Signal;HPM_P1;HPM_P2
2022/09/19 00:01:16;;;;;;;1.77;1.67;;;;;;;24.12;61.89;97193.69;5049247;28;20224;-31
2022/09/19 00:03:45;;;;;;;1.40;1.30;;;;;;;24.20;61.56;97194.69;5036553;28;20682;-31
2022/09/19 00:06:13;;;;;;;1.43;1.33;;;;;;;24.19;61.92;97198.06;5046210;28;20212;-31
2022/09/19 00:08:42;;;;;;;1.50;1.40;;;;;;;24.21;61.98;97198.97;5032511;28;20212;-31
2022/09/19 00:11:09;;;;;;;1.57;1.47;;;;;;;24.21;62.10;97203.22;5036004;28;20229;-31
2022/09/19 00:13:45;;;;;;;1.50;1.40;;;;;;;24.21;62.02;97204.09;5038160;28;20205;-31
2022/09/19 00:16:12;;;;;;;1.50;1.40;;;;;;;24.15;62.01;97182.59;5037265;28;20287;-31
2022/09/19 00:18:39;;;;;;;1.60;1.50;;;;;;;24.21;62.18;97191.25;5037501;28;20253;-31
2022/09/19 00:21:06;;;;;;;1.50;1.40;;;;;;;24.20;62.01;97186.09;5032254;28;20221;-31
2022/09/19 00:26:19;;;;;;;1.50;1.40;;;;;;;24.18;61.64;97175.81;5039926;28;20205;-31
2022/09/19 00:28:46;;;;;;;1.87;1.70;;;;;;;24.21;61.60;97182.69;5035823;28;20207;-31
2022/09/19 00:31:17;;;;;;;1.40;1.30;;;;;;;24.17;62.01;97179.22;5036607;28;20229;-31
2022/09/19 00:33:46;;;;;;;1.70;1.60;;;;;;;24.21;61.60;97192.94;5033566;28;20197;-31
2022/09/19 00:36:13;;;;;;;1.20;1.20;;;;;;;24.21;61.78;97187.81;5039033;28;20204;-31
2022/09/19 00:38:40;;;;;;;1.43;1.33;;;;;;;24.21;61.24;97188.69;5035489;28;20223;-31
2022/09/19 00:41:07;;;;;;;1.37;1.30;;;;;;;24.20;61.49;97189.53;5038349;28;20225;-31
2022/09/19 00:43:53;;;;;;;1.43;1.37;;;;;;;24.18;61.90;97190.34;5037443;28;20208;-31
2022/09/19 00:46:20;;;;;;;3.53;1.30;;;;;;;24.15;61.99;97198.00;5035343;28;20224;-31
2022/09/19 00:48:56;;;;;;;1.47;1.37;;;;;;;24.20;61.63;97210.09;5041601;28;20197;-31
2022/09/19 00:51:33;;;;;;;1.40;1.30;;;;;;;24.21;61.89;97205.78;5040936;28;20236;-31
2022/09/19 00:54:02;;;;;;;1.40;1.30;;;;;;;24.16;61.55;97197.19;5044983;28;20212;-31
2022/09/19 00:56:28;;;;;;;1.93;1.63;;;;;;;24.21;62.06;97208.38;5038901;28;20206;-31
2022/09/19 00:58:57;;;;;;;1.50;1.40;;;;;;;24.21;62.02;97218.63;5029679;28;20228;-31
2022/09/19 01:01:24;;;;;;;1.33;1.23;;;;;;;24.14;62.11;97207.44;5025279;28;20221;-31
2022/09/19 01:03:52;;;;;;;1.50;1.40;;;;;;;24.20;61.67;97216.91;5037532;28;20201;-31
2022/09/19 01:06:25;;;;;;;1.40;1.30;;;;;;;24.20;62.02;97212.66;5047260;28;20197;-31
2022/09/19 01:09:04;;;;;;;1.60;1.50;;;;;;;24.20;61.77;97214.34;5045476;28;20196;-31
2022/09/19 01:11:46;;;;;;;1.40;1.30;;;;;;;24.21;61.72;97226.34;5045433;28;20224;-31
2022/09/19 01:14:29;;;;;;;1.40;1.30;;;;;;;24.20;61.60;97225.50;5037643;28;20208;-31
2022/09/19 01:17:19;;;;;;;1.40;1.30;;;;;;;24.14;61.45;97214.25;5041102;28;20216;-31
2022/09/19 01:20:09;;;;;;;1.40;1.30;;;;;;;24.21;62.02;97228.91;5033145;28;20232;-31
2022/09/19 01:23:03;;;;;;;1.50;1.40;;;;;;;24.21;61.77;97234.03;5041769;28;20217;-31
2022/09/19 01:25:31;;;;;;;1.33;1.30;;;;;;;24.20;61.81;97237.47;5022444;28;20205;-31
2022/09/19 01:28:09;;;;;;;2.50;1.30;;;;;;;24.20;61.78;97235.78;5043027;28;20227;-31
2022/09/19 01:30:38;;;;;;;1.77;1.43;;;;;;;24.20;61.53;97235.78;5042662;28;20209;-31
2022/09/19 01:33:08;;;;;;;1.53;1.43;;;;;;;24.20;61.33;97238.34;5032016;28;20607;-31
2022/09/19 01:35:37;;;;;;;1.40;1.30;;;;;;;24.20;61.58;97234.91;5037639;28;20641;-31
2022/09/19 01:38:09;;;;;;;1.50;1.40;;;;;;;24.19;61.42;97239.16;5027163;28;20205;-31
2022/09/19 01:40:36;;;;;;;1.17;1.13;;;;;;;24.19;61.81;97239.16;5020633;28;20235;-31
2022/09/19 01:43:06;;;;;;;1.50;1.40;;;;;;;24.15;61.83;97231.38;5021786;28;20602;-31
2022/09/19 01:45:36;;;;;;;1.50;1.40;;;;;;;24.14;61.91;97234.81;5037556;28;20209;-32
2022/09/19 01:48:23;;;;;;;1.20;1.20;;;;;;;24.18;61.76;97245.13;5041221;28;20205;-31
2022/09/19 01:51:23;;;;;;;1.60;1.50;;;;;;;24.18;61.48;97250.28;5043851;28;20212;-31
2022/09/19 01:53:56;;;;;;;1.50;1.40;;;;;;;24.18;61.72;97249.41;5036934;28;20200;-31
2022/09/19 01:56:28;;;;;;;1.20;1.20;;;;;;;24.10;61.88;97230.47;5050526;28;20224;-31
2022/09/19 01:59:25;;;;;;;1.47;1.27;;;;;;;24.04;61.92;97220.13;5036767;28;20602;-31
2022/09/19 02:02:23;;;;;;;1.37;1.27;;;;;;;24.18;61.89;97255.41;5014034;28;20222;-31
2022/09/19 02:04:58;;;;;;;1.23;1.23;;;;;;;24.18;61.83;97259.69;4990238;28;20209;-31
2022/09/19 02:07:45;;;;;;;1.20;1.20;;;;;;;24.14;61.44;97251.09;5049599;28;20204;-31
2022/09/19 02:10:21;;;;;;;1.43;1.33;;;;;;;24.19;61.63;97264.00;5034545;28;20201;-31
2022/09/19 02:12:52;;;;;;;1.40;1.30;;;;;;;24.16;61.60;97249.38;5040393;28;20228;-31
2022/09/19 02:15:21;;;;;;;1.40;1.30;;;;;;;24.16;61.37;97254.53;5031179;28;20201;-31
2022/09/19 02:17:55;;;;;;;1.40;1.30;;;;;;;24.12;61.72;97239.03;5040984;28;20208;-31
2022/09/19 02:20:24;;;;;;;1.50;1.40;;;;;;;24.15;61.82;97247.66;5007172;28;20233;-32
2022/09/19 02:22:53;;;;;;;1.50;1.40;;;;;;;24.18;61.58;97255.41;5032108;28;20216;-31
2022/09/19 02:25:22;;;;;;;1.40;1.30;;;;;;;24.12;62.02;97251.88;5041466;28;20555;-31
2022/09/19 02:27:51;;;;;;;1.40;1.30;;;;;;;24.12;61.65;97246.75;5033539;28;20204;-31
2022/09/19 02:30:20;;;;;;;1.40;1.30;;;;;;;24.19;61.54;97258.84;5050614;28;20197;-31
2022/09/19 02:32:48;;;;;;;1.60;1.40;;;;;;;24.05;61.44;97247.50;5062811;22;20235;-23
2022/09/19 02:35:36;;;;;;;1.60;1.50;;;;;;;24.17;61.85;97263.97;5047768;28;20200;-23
2022/09/19 02:38:09;;;;;;;1.43;1.33;;;;;;;24.18;61.59;97260.56;5038324;28;20208;-23
2022/09/19 02:41:12;;;;;;;1.40;1.30;;;;;;;24.19;61.80;97259.69;5048006;28;20236;-23
2022/09/19 02:43:47;;;;;;;1.47;1.37;;;;;;;24.14;61.45;97265.63;5025626;28;20205;-23
2022/09/19 02:46:36;;;;;;;1.40;1.30;;;;;;;24.19;61.69;97276.84;5044553;28;20213;-23
2022/09/19 02:49:05;;;;;;;1.20;1.20;;;;;;;24.18;61.81;97273.38;5027986;28;20201;-23
2022/09/19 02:51:39;;;;;;;1.27;1.20;;;;;;;24.19;61.38;97275.09;5024510;28;20264;-23
2022/09/19 02:54:11;;;;;;;1.30;1.20;;;;;;;23.98;61.60;97236.28;5027602;28;20228;-23
2022/09/19 02:56:38;;;;;;;2.53;1.23;;;;;;;24.19;61.37;97271.69;5026725;28;20578;-23
2022/09/19 02:59:08;;;;;;;1.40;1.30;;;;;;;24.19;61.88;97277.66;5021041;28;20225;-24
2022/09/19 03:01:34;;;;;;;1.40;1.30;;;;;;;24.17;61.89;97271.69;5027240;28;20222;-23
2022/09/19 03:04:12;;;;;;;1.40;1.30;;;;;;;24.15;61.87;97249.34;5027970;28;20224;-23
2022/09/19 03:06:46;;;;;;;1.37;1.27;;;;;;;24.18;61.80;97263.13;5027608;28;20208;-23
2022/09/19 03:09:14;;;;;;;1.50;1.40;;;;;;;24.19;61.55;97269.13;5039740;28;20198;-23
2022/09/19 03:11:43;;;;;;;1.40;1.30;;;;;;;24.18;61.50;97270.81;5043153;28;20226;-23
2022/09/19 03:14:10;;;;;;;1.50;1.40;;;;;;;24.18;61.79;97275.97;5027857;28;20208;-23
2022/09/19 03:16:40;;;;;;;1.40;1.30;;;;;;;24.17;61.92;97271.69;5026496;28;20205;-23
2022/09/19 03:19:07;;;;;;;1.50;1.40;;;;;;;24.17;61.64;97274.25;5024225;28;20276;-23
2022/09/19 03:21:34;;;;;;;1.23;1.20;;;;;;;24.17;61.81;97271.69;5043973;28;20615;-23
2022/09/19 03:24:01;;;;;;;1.50;1.40;;;;;;;23.95;61.61;97240.47;5027925;28;20229;-23
2022/09/19 03:26:30;;;;;;;1.40;1.30;;;;;;;24.13;61.81;97269.88;5044114;28;20206;-23
2022/09/19 03:28:57;;;;;;;1.60;1.50;;;;;;;24.16;61.67;97276.78;5028555;28;20202;-22
2022/09/19 03:31:24;;;;;;;1.37;1.27;;;;;;;24.16;61.84;97285.34;5026771;28;20225;-24
2022/09/19 03:33:52;;;;;;;2.20;1.20;;;;;;;24.17;61.45;97287.09;5028374;28;20212;-24
2022/09/19 03:36:19;;;;;;;1.20;1.20;;;;;;;24.17;61.60;97304.19;5027117;28;20672;-24
2022/09/19 03:38:46;;;;;;;1.10;1.10;;;;;;;24.17;61.64;97299.91;5028712;28;20201;-24
2022/09/19 03:41:16;;;;;;;1.47;1.37;;;;;;;24.17;61.59;97297.34;5028192;28;20217;-23
2022/09/19 03:43:43;;;;;;;1.40;1.30;;;;;;;24.17;61.43;97310.19;5028678;28;20202;-23
2022/09/19 03:46:11;;;;;;;1.20;1.20;;;;;;;24.17;61.61;97309.31;5028054;28;20495;-23
2022/09/19 03:48:38;;;;;;;1.40;1.30;;;;;;;24.17;61.63;97299.03;5028318;28;20233;-23
2022/09/19 03:51:05;;;;;;;1.50;1.40;;;;;;;24.17;61.55;97294.78;5028215;28;20204;-23
2022/09/19 03:53:33;;;;;;;1.47;1.37;;;;;;;24.17;61.77;97294.78;5024247;28;20595;-23
2022/09/19 03:56:00;;;;;;;1.40;1.30;;;;;;;24.17;61.64;97302.50;5027806;28;20217;-23
2022/09/19 03:58:28;;;;;;;1.20;1.20;;;;;;;24.17;61.97;97320.47;5027191;28;20214;-23
2022/09/19 04:00:55;;;;;;;1.53;1.40;;;;;;;24.18;62.00;97321.31;5027479;28;20221;-22
2022/09/19 04:03:23;;;;;;;1.43;1.33;;;;;;;24.18;61.84;97318.72;5027744;28;20648;-23
2022/09/19 04:05:51;;;;;;;2.50;1.30;;;;;;;24.17;61.58;97328.16;5027262;28;20208;-23
2022/09/19 04:08:19;;;;;;;1.30;1.20;;;;;;;24.17;61.59;97330.72;5023867;28;20208;-22
2022/09/19 04:10:45;;;;;;;1.10;1.10;;;;;;;24.14;61.61;97325.56;5025056;28;20620;-23
2022/09/19 04:13:12;;;;;;;1.63;1.53;;;;;;;24.17;61.33;97325.59;5022569;28;20214;-23
2022/09/19 04:15:38;;;;;;;1.50;1.40;;;;;;;24.15;61.68;97328.97;5021253;28;20205;-23
2022/09/19 04:18:05;;;;;;;1.30;1.23;;;;;;;24.17;61.51;97333.31;5026654;28;20198;-23
2022/09/19 04:20:32;;;;;;;1.40;1.30;;;;;;;24.18;61.32;97336.72;5026443;28;20225;-23
2022/09/19 04:23:01;;;;;;;1.60;1.50;;;;;;;24.16;61.74;97323.84;5026768;28;20217;-23
2022/09/19 04:25:35;;;;;;;1.40;1.20;;;;;;;24.18;61.92;97334.16;5027756;28;20205;-23
2022/09/19 04:28:05;;;;;;;1.40;1.30;;;;;;;24.07;61.51;97325.44;5027284;28;20205;-23
2022/09/19 04:30:36;;;;;;;1.17;1.10;;;;;;;24.18;61.59;97349.56;5022959;28;20212;-23
2022/09/19 04:33:03;;;;;;;1.10;1.10;;;;;;;24.17;61.53;97345.25;5021116;28;20248;-23
2022/09/19 04:35:35;;;;;;;1.43;1.33;;;;;;;23.83;61.53;97292.47;5026424;28;20216;-23
2022/09/19 04:38:06;;;;;;;1.40;1.30;;;;;;;24.12;61.80;97339.19;5026835;28;20210;-23
2022/09/19 04:40:44;;;;;;;1.33;1.30;;;;;;;24.14;61.69;97346.09;5026133;28;20221;-23
2022/09/19 04:43:12;;;;;;;1.40;1.30;;;;;;;24.16;61.67;97348.69;5026796;28;20251;-23
2022/09/19 04:45:40;;;;;;;1.40;1.30;;;;;;;24.17;61.84;97360.69;5024495;28;20600;-23
2022/09/19 04:48:07;;;;;;;1.30;1.20;;;;;;;24.15;61.36;97355.50;5027353;28;20209;-23
2022/09/19 04:50:33;;;;;;;1.70;1.40;;;;;;;24.16;60.56;97361.53;5027128;28;20213;-23
2022/09/19 04:53:00;;;;;;;1.60;1.50;;;;;;;24.15;59.75;97357.19;5020582;28;20229;-22
2022/09/19 04:55:27;;;;;;;1.50;1.40;;;;;;;24.16;60.33;97358.97;5018845;28;20680;-22
2022/09/19 04:57:57;;;;;;;1.70;1.40;;;;;;;24.16;60.15;97364.09;5024500;28;20202;-23
2022/09/19 05:00:39;;;;;;;2.20;1.57;;;;;;;24.15;58.07;97367.47;5027204;28;20840;-23
2022/09/19 05:03:17;;;;;;;2.27;1.60;;;;;;;24.14;56.47;97369.19;5019694;28;20233;-23
2022/09/19 05:05:44;;;;;;;4.80;1.60;;;;;;;24.14;55.71;97368.31;5027128;28;20212;-23
2022/09/19 05:08:18;;;;;;;15.33;1.70;;;;;;;24.13;54.98;97382.84;5027750;28;20591;-23
2022/09/19 05:10:48;;;;;;;2.07;1.40;;;;;;;24.13;54.46;97380.28;5027364;28;20197;-22
2022/09/19 05:13:15;;;;;;;2.20;1.60;;;;;;;24.13;53.24;97387.16;5025636;28;20742;-23
2022/09/19 05:15:44;;;;;;;6.80;1.80;;;;;;;24.12;52.52;97391.41;5027339;28;20201;-23
2022/09/19 05:18:10;;;;;;;4.63;1.53;;;;;;;24.12;51.95;97390.53;5027936;28;20201;-22
2022/09/19 05:20:37;;;;;;;2.80;1.50;;;;;;;24.11;51.24;97397.41;5031823;28;20229;-23
2022/09/19 05:23:04;;;;;;;1.57;1.47;;;;;;;24.11;51.02;97397.41;5030757;28;20217;-23
2022/09/19 05:25:34;;;;;;;3.10;1.70;;;;;;;24.06;50.63;97388.75;5031213;28;20589;-23
2022/09/19 05:28:04;;;;;;;2.67;1.53;;;;;;;24.10;50.28;97402.50;5030132;28;20205;-24
2022/09/19 05:30:46;;;;;;;3.73;1.90;;;;;;;24.11;50.57;97405.09;5031308;28;20209;-23
2022/09/19 05:33:12;;;;;;;2.83;1.67;;;;;;;24.10;50.33;97405.91;5030287;28;20239;-23
2022/09/19 05:35:40;;;;;;;2.97;1.70;;;;;;;24.10;50.41;97415.34;5029980;28;20595;-23
2022/09/19 05:38:07;;;;;;;3.30;1.80;;;;;;;24.09;50.09;97414.47;5030167;28;20201;-23
2022/09/19 05:40:33;;;;;;;6.20;1.80;;;;;;;24.09;50.60;97416.16;5030511;28;20555;-22
2022/09/19 05:43:00;;;;;;;3.70;1.73;;;;;;;24.08;50.78;97415.31;5028736;28;20225;-23
2022/09/19 05:45:27;;;;;;;2.40;1.60;;;;;;;24.01;51.73;97410.88;5030511;28;20205;-23
2022/09/19 05:48:04;;;;;;;4.63;1.80;;;;;;;24.09;52.09;97423.84;5029937;28;20202;-24
2022/09/19 05:50:31;;;;;;;3.33;1.50;;;;;;;24.09;52.55;97431.56;5031084;28;20228;-23
2022/09/19 05:55:43;;;;;;;5.07;1.73;;;;;;;24.04;54.11;97428.91;5029444;28;20208;-23
2022/09/19 05:58:09;;;;;;;4.13;1.67;;;;;;;23.99;54.33;97419.41;5029902;28;20201;-23
2022/09/19 06:00:37;;;;;;;4.27;1.77;;;;;;;24.10;52.73;97454.69;5029002;28;20710;-22
2022/09/19 06:03:05;;;;;;;4.53;1.63;;;;;;;24.00;51.78;97431.41;5030099;28;20230;-22
2022/09/19 06:05:38;;;;;;;5.93;1.90;;;;;;;24.09;50.70;97447.84;5025900;28;20625;-23
2022/09/19 06:08:07;;;;;;;6.40;2.00;;;;;;;24.08;51.25;97453.81;5022229;28;20206;-23
2022/09/19 06:10:37;;;;;;;7.27;1.90;;;;;;;24.08;51.61;97460.66;5024461;28;20198;-22
2022/09/19 06:13:04;;;;;;;12.10;2.87;;;;;;;24.07;52.00;97462.34;5024975;28;20233;-23
2022/09/19 06:15:31;;;;;;;15.63;2.47;;;;;;;24.08;52.32;97466.66;5020705;28;20201;-23
2022/09/19 06:17:57;;;;;;;6.47;1.63;;;;;;;24.08;52.97;97463.22;5018465;28;20749;-23
2022/09/19 06:20:24;;;;;;;6.90;2.00;;;;;;;24.09;53.52;97465.81;5023281;28;20240;-23
2022/09/19 06:23:00;;;;;;;5.83;2.17;;;;;;;24.09;53.91;97462.38;5018773;28;20580;-23
2022/09/19 06:25:28;;;;;;;4.23;1.73;;;;;;;24.10;54.15;97472.66;5024004;28;20672;-23
2022/09/19 06:27:55;;;;;;;4.20;1.80;;;;;;;24.10;54.60;97466.69;5022537;28;20638;-23
2022/09/19 06:30:22;;;;;;;4.00;1.90;;;;;;;24.09;55.09;97472.66;5024426;28;20206;-23
2022/09/19 06:32:50;;;;;;;3.53;1.93;;;;;;;24.11;55.15;97479.56;5019296;28;20229;-22
2022/09/19 06:35:20;;;;;;;5.67;2.10;;;;;;;24.11;55.85;97474.44;5025469;28;20420;-23
2022/09/19 06:37:47;;;;;;;4.07;1.70;;;;;;;24.12;55.71;97488.97;5026062;28;20672;-23
2022/09/19 06:40:14;;;;;;;5.40;1.80;;;;;;;24.05;54.97;97479.44;5030788;28;20217;-23
2022/09/19 06:42:41;;;;;;;3.23;1.90;;;;;;;24.06;55.23;97485.44;5030321;28;20225;-24
2022/09/19 06:45:08;;;;;;;6.10;1.57;;;;;;;24.12;55.57;97493.25;5030269;28;20205;-24
2022/09/19 06:47:35;;;;;;;7.30;1.83;;;;;;;24.11;55.06;97497.53;5030399;28;20202;-23
2022/09/19 06:50:03;;;;;;;4.73;1.80;;;;;;;24.12;54.58;97506.97;5028875;28;20585;-23
2022/09/19 06:52:29;;;;;;;4.90;2.07;;;;;;;24.12;55.38;97500.94;5029185;28;20228;-23
2022/09/19 06:54:58;;;;;;;4.23;1.80;;;;;;;24.11;54.22;97507.81;5029131;28;20208;-23
2022/09/19 06:57:24;;;;;;;4.87;2.07;;;;;;;24.11;54.31;97507.81;5029672;28;20202;-23
2022/09/19 06:59:51;;;;;;;2.97;1.50;;;;;;;24.12;55.13;97512.09;5031092;28;20585;-22
2022/09/19 07:02:21;;;;;;;5.83;1.60;;;;;;;24.12;55.27;97512.09;5029717;28;20636;-23
2022/09/19 07:04:47;;;;;;;4.23;1.50;;;;;;;24.12;55.71;97522.38;5029708;28;20201;-23
2022/09/19 07:07:15;;;;;;;4.20;1.60;;;;;;;24.13;56.00;97528.38;5030198;28;20209;-22
2022/09/19 07:09:42;;;;;;;1.80;1.50;;;;;;;24.13;56.26;97533.50;5030102;28;20209;-22
2022/09/19 07:12:09;;;;;;;2.73;1.53;;;;;;;24.13;56.14;97531.78;5030264;28;20221;-23
2022/09/19 07:14:35;;;;;;;4.40;1.60;;;;;;;24.13;56.27;97533.50;5032773;28;20699;-23
2022/09/19 07:17:02;;;;;;;5.13;1.70;;;;;;;24.13;56.27;97539.50;5029509;28;20201;-23
2022/09/19 07:19:28;;;;;;;3.13;1.63;;;;;;;24.14;56.56;97542.94;5022903;28;20198;-22
2022/09/19 07:21:55;;;;;;;2.67;1.53;;;;;;;24.12;56.57;97536.91;5019097;28;20225;-23
2022/09/19 07:24:21;;;;;;;8.03;2.13;;;;;;;24.13;56.42;97539.50;5029593;28;20208;-23
2022/09/19 07:26:48;;;;;;;4.53;1.97;;;;;;;24.07;56.45;97533.41;5016082;28;20680;-23
2022/09/19 07:29:14;;;;;;;2.17;1.50;;;;;;;24.12;56.22;97547.16;5018836;28;20202;-23
2022/09/19 07:31:41;;;;;;;3.93;1.60;;;;;;;24.12;56.33;97560.00;5026353;28;20229;-23
2022/09/19 07:34:07;;;;;;;4.03;1.57;;;;;;;24.10;56.91;97557.41;5029581;28;20301;-22
2022/09/19 07:36:34;;;;;;;5.10;1.77;;;;;;;24.12;56.69;97562.56;5029254;28;20205;-23
2022/09/19 07:39:01;;;;;;;2.47;1.40;;;;;;;24.11;56.90;97574.56;5029880;28;20197;-23
2022/09/19 07:41:28;;;;;;;2.63;1.60;;;;;;;24.11;57.07;97574.56;5028405;28;20225;-23
2022/09/19 07:43:54;;;;;;;4.63;1.77;;;;;;;24.11;56.84;97579.69;5027650;28;20209;-22
2022/09/19 07:46:21;;;;;;;3.33;1.53;;;;;;;24.08;57.10;97577.06;5028737;28;20206;-23
2022/09/19 07:48:47;;;;;;;2.70;1.57;;;;;;;24.11;56.92;97584.84;5028651;28;20251;-24
2022/09/19 07:51:14;;;;;;;5.03;1.60;;;;;;;24.12;56.98;97596.84;5029396;28;20221;-22
2022/09/19 07:53:40;;;;;;;2.80;1.33;;;;;;;24.12;56.80;97599.41;5029373;28;20213;-22
2022/09/19 07:56:09;;;;;;;2.53;1.40;;;;;;;24.12;57.00;97601.09;5029167;28;20197;-23
2022/09/19 07:58:35;;;;;;;2.77;1.50;;;;;;;24.13;56.99;97610.56;5027751;28;20206;-24
2022/09/19 08:01:02;;;;;;;3.47;1.50;;;;;;;24.12;57.12;97617.38;5028819;28;20217;-23
2022/09/19 08:03:29;;;;;;;2.03;1.40;;;;;;;24.13;57.30;97619.09;5027701;28;20219;-23
2022/09/19 08:05:58;;;;;;;3.00;1.63;;;;;;;24.13;57.45;97619.09;5026771;28;20577;-23
2022/09/19 08:08:25;;;;;;;2.27;1.50;;;;;;;24.12;57.22;97614.81;5028211;28;20201;-23
2022/09/19 08:10:51;;;;;;;4.10;1.60;;;;;;;24.13;57.71;97626.81;5029421;28;20671;-24
2022/09/19 08:13:18;;;;;;;3.43;1.63;;;;;;;24.14;57.16;97635.38;5029077;28;20213;-23
2022/09/19 08:15:45;;;;;;;4.77;1.73;;;;;;;24.13;57.33;97634.50;5028093;28;20678;-23
2022/09/19 08:18:16;;;;;;;3.83;1.57;;;;;;;24.13;57.42;97626.81;5028355;28;20213;-23
2022/09/19 08:20:44;;;;;;;3.20;1.67;;;;;;;24.13;57.12;97647.34;5025370;28;20249;-23
2022/09/19 08:23:12;;;;;;;8.60;1.80;;;;;;;24.08;56.31;97631.00;5023149;28;20613;-23
2022/09/19 08:25:46;;;;;;;4.93;2.10;;;;;;;24.06;55.34;97632.66;5028779;28;20213;-23
2022/09/19 08:28:13;;;;;;;2.83;1.80;;;;;;;24.13;55.36;97651.63;5028128;28;20213;-22
2022/09/19 08:30:42;;;;;;;3.17;1.70;;;;;;;24.13;56.18;97651.63;5027432;28;20202;-23
2022/09/19 08:33:09;;;;;;;4.00;1.90;;;;;;;24.13;56.55;97652.47;5062030;22;20231;-23
2022/09/19 08:35:39;;;;;;;4.50;1.93;;;;;;;24.13;56.81;97659.34;5061071;28;20205;-23
2022/09/19 08:38:06;;;;;;;1.80;1.53;;;;;;;24.12;56.91;97663.59;5064666;28;20196;-23
2022/09/19 08:40:35;;;;;;;3.23;1.83;;;;;;;24.13;57.18;97659.34;5065004;28;20220;-23
2022/09/19 08:43:14;;;;;;;6.23;2.07;;;;;;;24.13;57.33;97665.31;5050520;28;20223;-23
2022/09/19 08:45:50;;;;;;;4.43;1.63;;;;;;;24.14;57.38;97668.75;5044584;28;20216;-28
2022/09/19 08:48:20;;;;;;;3.90;1.63;;;;;;;24.14;57.38;97673.91;5047214;28;20255;-23
2022/09/19 08:50:54;;;;;;;5.60;1.80;;;;;;;24.14;57.38;97676.47;5048415;28;20201;-23
2022/09/19 08:53:27;;;;;;;2.30;1.50;;;;;;;24.12;57.69;97681.56;5045563;28;20225;-24
2022/09/19 08:55:54;;;;;;;2.03;1.43;;;;;;;24.12;57.35;97675.56;5030844;28;20200;-23
2022/09/19 08:58:23;;;;;;;2.90;1.80;;;;;;;24.12;57.22;97681.56;5031580;28;20220;-23
2022/09/19 09:00:50;;;;;;;2.63;1.70;;;;;;;24.12;57.72;97685.84;5046256;28;20368;-23
2022/09/19 09:03:20;;;;;;;3.70;1.80;;;;;;;24.03;57.37;97675.34;5047067;28;20224;-23
2022/09/19 09:06:13;;;;;;;3.43;2.03;;;;;;;23.76;57.56;97626.81;5047078;28;20295;-23
2022/09/19 09:09:02;;;;;;;3.63;1.50;;;;;;;23.84;57.47;97645.84;5045940;28;20193;-23
2022/09/19 09:12:05;;;;;;;2.90;1.73;;;;;;;24.13;57.64;97695.28;5043912;28;20201;-23
2022/09/19 09:15:01;;;;;;;6.10;1.97;;;;;;;24.12;57.61;97696.97;5052478;28;20208;-23
2022/09/19 09:17:58;;;;;;;2.27;1.40;;;;;;;24.13;57.70;97700.44;5046016;28;20200;-23
2022/09/19 09:20:49;;;;;;;2.57;1.70;;;;;;;24.13;57.82;97700.44;5051840;28;20633;-23
2022/09/19 09:23:31;;;;;;;3.73;1.67;;;;;;;23.75;57.73;97637.94;5042060;28;20221;-23
2022/09/19 09:26:19;;;;;;;3.43;1.70;;;;;;;24.11;57.50;97697.81;5030740;28;20212;-23
2022/09/19 09:28:49;;;;;;;2.40;1.70;;;;;;;24.03;57.83;97690.75;5059276;28;20224;-23
2022/09/19 09:31:24;;;;;;;1.83;1.60;;;;;;;24.12;57.76;97714.06;5026680;28;20202;-23
2022/09/19 09:33:53;;;;;;;2.43;1.40;;;;;;;24.12;57.56;97702.13;5040706;28;20694;-23
2022/09/19 09:36:23;;;;;;;2.27;1.50;;;;;;;24.12;57.45;97699.53;5041002;28;20197;-23
2022/09/19 09:38:54;;;;;;;2.27;1.60;;;;;;;24.13;57.66;97705.56;5045018;28;20205;-23
2022/09/19 09:41:50;;;;;;;1.97;1.30;;;;;;;24.13;57.72;97706.41;5026326;28;20232;-26
2022/09/19 09:44:32;;;;;;;1.47;1.37;;;;;;;24.05;58.15;97689.09;5042136;28;20208;-24
2022/09/19 09:47:11;;;;;;;3.90;1.80;;;;;;;23.78;57.95;97637.13;5053416;28;20201;-23
2022/09/19 09:49:37;;;;;;;4.77;1.77;;;;;;;24.13;57.45;97703.84;5050023;28;20201;-23
2022/09/19 09:52:22;;;;;;;2.83;1.60;;;;;;;24.12;55.74;97712.38;5060521;28;20217;-23
2022/09/19 09:57:42;;;;;;;2.67;1.70;;;;;;;24.03;55.99;97703.59;5044304;28;20201;-23
2022/09/19 10:03:34;;;;;;;4.53;1.70;;;;;;;24.12;56.40;97719.22;5046009;28;20224;-23
2022/09/19 10:06:05;;;;;;;2.70;1.50;;;;;;;24.10;56.62;97729.44;5048515;28;20239;-23
2022/09/19 10:09:08;;;;;;;5.00;1.97;;;;;;;24.10;54.91;97728.59;5048284;28;20196;-26
2022/09/19 10:11:45;;;;;;;5.93;1.97;;;;;;;24.01;53.93;97701.00;5050270;28;20291;-23
2022/09/19 10:14:33;;;;;;;5.30;2.00;;;;;;;24.10;54.49;97733.75;5044531;28;20209;-27
2022/09/19 10:17:01;;;;;;;4.27;1.70;;;;;;;24.10;54.75;97720.91;5044246;28;20566;-25
2022/09/19 10:19:27;;;;;;;3.47;1.70;;;;;;;24.10;55.89;97710.63;5044658;28;20197;-23
2022/09/19 10:21:54;;;;;;;5.33;1.70;;;;;;;24.10;56.95;97715.75;5036756;28;20221;-23
2022/09/19 10:24:42;;;;;;;4.73;1.90;;;;;;;24.09;56.52;97727.72;5040386;28;20212;-23
2022/09/19 10:27:31;;;;;;;2.93;1.67;;;;;;;24.10;56.38;97731.16;5049453;28;20201;-23
2022/09/19 10:30:25;;;;;;;6.43;2.83;;;;;;;24.10;55.91;97741.44;5046797;28;20687;-23
2022/09/19 10:32:52;;;;;;;7.60;3.27;;;;;;;24.10;55.54;97744.84;5049068;28;20617;-23
2022/09/19 10:35:32;;;;;;;6.53;2.53;;;;;;;24.00;55.85;97727.53;5049423;28;20208;-23
2022/09/19 10:37:59;;;;;;;5.93;2.33;;;;;;;24.10;56.44;97742.28;5049321;28;20769;-29
2022/09/19 10:40:26;;;;;;;5.53;2.20;;;;;;;23.74;56.56;97681.53;5050079;28;20205;-23
2022/09/19 10:42:54;;;;;;;4.93;2.07;;;;;;;24.02;56.62;97732.69;5032220;28;20274;-23
2022/09/19 10:45:25;;;;;;;4.07;1.90;;;;;;;24.12;56.41;97752.59;5051968;28;20205;-23
2022/09/19 10:47:55;;;;;;;4.90;2.43;;;;;;;24.12;56.64;97756.03;5047395;28;20205;-23
2022/09/19 10:50:22;;;;;;;4.57;2.47;;;;;;;24.12;56.99;97760.28;5050637;28;20208;-23
2022/09/19 10:52:49;;;;;;;4.03;2.43;;;;;;;24.03;56.80;97739.53;5035619;28;20625;-23
2022/09/19 10:55:21;;;;;;;6.70;2.80;;;;;;;24.13;57.10;97774.91;5021286;28;20204;-23
2022/09/19 10:58:16;;;;;;;8.87;3.17;;;;;;;24.13;56.83;97765.47;5050622;28;20196;-28
2022/09/19 11:00:52;;;;;;;7.07;2.90;;;;;;;24.12;57.09;97766.31;5042955;28;20573;-24
2022/09/19 11:03:25;;;;;;;6.53;3.00;;;;;;;24.13;56.97;97754.34;5048644;28;20252;-23
2022/09/19 11:06:02;;;;;;;6.27;2.80;;;;;;;24.13;56.99;97749.22;5044349;28;20283;-23
2022/09/19 11:08:30;;;;;;;10.83;3.50;;;;;;;24.14;56.96;97761.22;5044348;28;20200;-30
2022/09/19 11:10:56;;;;;;;9.00;3.87;;;;;;;24.14;56.88;97754.38;5046406;28;20216;-23
2022/09/19 11:13:23;;;;;;;9.60;3.70;;;;;;;24.14;57.04;97746.69;5049037;28;20231;-23
2022/09/19 11:15:53;;;;;;;9.90;3.43;;;;;;;24.14;57.28;97743.22;5048620;28;20205;-23
2022/09/19 11:18:29;;;;;;;9.07;3.40;;;;;;;24.14;57.31;97741.53;5049005;28;20220;-23
2022/09/19 11:21:07;;;;;;;10.10;3.53;;;;;;;24.15;57.36;97742.41;5045398;28;20204;-23
2022/09/19 11:23:42;;;;;;;10.43;3.93;;;;;;;24.15;57.31;97743.28;5048520;28;20224;-23
2022/09/19 11:26:44;;;;;;;7.70;3.50;;;;;;;24.15;57.60;97743.28;5038632;28;20207;-30
2022/09/19 11:29:30;;;;;;;14.17;3.50;;;;;;;24.15;57.26;97737.25;5028054;28;20570;-27
2022/09/19 11:32:16;;;;;;;10.37;4.07;;;;;;;24.15;57.30;97745.84;5047855;28;20232;-23
2022/09/19 11:35:23;;;;;;;16.93;4.90;;;;;;;24.14;57.25;97735.53;5049200;28;20197;-24
2022/09/19 11:38:05;;;;;;;16.03;4.70;;;;;;;24.15;57.27;97743.28;5049598;28;20203;-23
2022/09/19 11:41:09;;;;;;;9.23;4.10;;;;;;;24.15;57.45;97742.41;5048970;28;20197;-23
2022/09/19 11:44:03;;;;;;;10.13;4.30;;;;;;;24.14;57.43;97736.41;5046057;28;20220;-23
2022/09/19 11:46:49;;;;;;;9.57;4.20;;;;;;;24.15;57.76;97724.41;5048396;28;20205;-23
2022/09/19 11:49:22;;;;;;;13.23;4.80;;;;;;;24.14;57.30;97731.28;5044271;28;20210;-23
2022/09/19 11:51:52;;;;;;;10.90;4.20;;;;;;;24.14;57.73;97730.41;5046545;28;20216;-23
2022/09/19 11:55:03;;;;;;;9.97;3.63;;;;;;;24.13;57.57;97718.41;5049149;28;20567;-23
2022/09/19 11:57:43;;;;;;;13.50;4.93;;;;;;;24.13;57.14;97713.25;5007251;28;20603;-23
2022/09/19 12:00:15;;;;;;;14.77;5.20;;;;;;;24.11;56.68;97708.09;5004485;28;20198;-23
2022/09/19 12:02:49;;;;;;;13.23;4.57;;;;;;;23.84;56.69;97652.66;4998341;28;21248;-23
2022/09/19 12:05:31;;;;;;;12.50;5.10;;;;;;;24.13;56.97;97708.13;5036705;28;20215;-23
2022/09/19 12:08:07;;;;;;;10.47;4.23;;;;;;;24.13;57.24;97715.84;5048976;28;20201;-23
2022/09/19 12:10:54;;;;;;;9.93;4.67;;;;;;;24.13;57.31;97711.53;5046548;28;20209;-23